createdAt,value
2023-05-17T00:00:11.035Z,3.73
2023-05-17T00:02:39.409Z,4.73
2023-05-17T00:05:08.090Z,4.00
2023-05-17T00:07:37.586Z,4.30
2023-05-17T00:10:06.076Z,3.63
2023-05-17T00:12:34.570Z,3.83
2023-05-17T00:15:02.825Z,3.90
2023-05-17T00:17:31.286Z,3.77
2023-05-17T00:19:59.570Z,4.33
2023-05-17T00:22:27.757Z,4.43
2023-05-17T00:24:57.307Z,4.27
2023-05-17T00:27:25.516Z,5.30
2023-05-17T00:29:53.702Z,3.37
2023-05-17T00:32:22.008Z,4.60
2023-05-17T00:34:50.240Z,4.00
2023-05-17T00:37:18.442Z,4.27
2023-05-17T00:39:46.627Z,4.23
2023-05-17T00:42:16.323Z,4.80
2023-05-17T00:44:44.513Z,4.50
2023-05-17T00:47:12.763Z,3.87
2023-05-17T00:49:41.155Z,3.47
2023-05-17T00:52:09.737Z,4.00
2023-05-17T00:54:37.937Z,3.80
2023-05-17T00:57:07.316Z,4.33
2023-05-17T00:59:37.448Z,3.90
2023-05-17T01:02:05.908Z,5.10
2023-05-17T01:04:34.652Z,3.77
2023-05-17T01:07:02.934Z,4.20
2023-05-17T01:09:31.315Z,4.47
2023-05-17T01:12:04.960Z,3.80
2023-05-17T01:14:40.309Z,3.73
2023-05-17T01:17:14.431Z,4.30
2023-05-17T01:19:51.887Z,4.40
2023-05-17T01:22:25.445Z,4.70
2023-05-17T01:25:02.500Z,3.90
2023-05-17T01:27:32.249Z,4.23
2023-05-17T01:30:01.016Z,3.60
2023-05-17T01:32:29.527Z,3.80
2023-05-17T01:34:57.722Z,3.83
2023-05-17T01:37:25.962Z,3.90
2023-05-17T01:39:54.194Z,4.27
2023-05-17T01:42:24.601Z,3.87
2023-05-17T01:44:58.857Z,3.90
2023-05-17T01:47:31.708Z,4.50
2023-05-17T01:50:01.103Z,4.40
2023-05-17T01:52:31.765Z,4.30
2023-05-17T01:55:05.252Z,4.33
2023-05-17T01:57:35.512Z,3.77
2023-05-17T02:00:07.520Z,4.20
2023-05-17T02:02:35.866Z,3.87
2023-05-17T02:05:04.141Z,3.93
2023-05-17T02:07:32.399Z,4.13
2023-05-17T02:10:00.562Z,3.97
2023-05-17T02:12:28.765Z,4.17
2023-05-17T02:14:57.001Z,3.63
2023-05-17T02:17:26.634Z,3.70
2023-05-17T02:19:54.950Z,3.57
2023-05-17T02:22:23.187Z,3.77
2023-05-17T02:24:51.625Z,4.40
2023-05-17T02:27:19.843Z,3.80
2023-05-17T02:29:48.023Z,3.90
2023-05-17T02:32:16.394Z,3.57
2023-05-17T02:34:46.110Z,3.80
2023-05-17T02:37:14.377Z,4.33
2023-05-17T02:39:42.619Z,3.70
2023-05-17T02:42:10.888Z,3.70
2023-05-17T02:44:39.094Z,4.03
2023-05-17T02:47:07.724Z,4.57
2023-05-17T02:49:36.046Z,3.70
2023-05-17T02:52:05.775Z,4.00
2023-05-17T02:54:33.998Z,3.73
2023-05-17T02:57:03.166Z,4.10
2023-05-17T02:59:31.361Z,3.90
2023-05-17T03:01:59.522Z,4.00
2023-05-17T03:04:27.813Z,4.57
2023-05-17T03:06:56.510Z,4.00
2023-05-17T03:09:26.046Z,3.93
2023-05-17T03:11:54.258Z,4.17
2023-05-17T03:14:22.491Z,4.23
2023-05-17T03:16:50.805Z,4.33
2023-05-17T03:19:19.086Z,3.93
2023-05-17T03:21:47.285Z,3.47
2023-05-17T03:24:15.581Z,4.00
2023-05-17T03:26:45.120Z,4.33
2023-05-17T03:29:13.336Z,4.37
2023-05-17T03:31:41.590Z,3.73
2023-05-17T03:34:09.912Z,4.10
2023-05-17T03:36:39.282Z,4.00
2023-05-17T03:39:07.914Z,3.50
2023-05-17T03:41:36.212Z,3.60
2023-05-17T03:44:06.011Z,3.53
2023-05-17T03:46:34.200Z,3.20
2023-05-17T03:49:02.479Z,3.40
2023-05-17T03:51:30.789Z,3.90
2023-05-17T03:54:00.230Z,3.53
2023-05-17T03:56:28.753Z,3.33
2023-05-17T03:58:57.015Z,3.50
2023-05-17T04:01:26.576Z,3.50
2023-05-17T04:03:54.914Z,3.40
2023-05-17T04:06:23.194Z,3.77
2023-05-17T04:08:51.394Z,3.30
2023-05-17T04:11:23.759Z,4.23
2023-05-17T04:13:51.993Z,3.30
2023-05-17T04:16:20.308Z,3.63
2023-05-17T04:18:52.736Z,3.40
2023-05-17T04:21:21.373Z,3.40
2023-05-17T04:23:49.573Z,3.33
2023-05-17T04:26:17.923Z,3.07
2023-05-17T04:28:46.132Z,4.20
2023-05-17T04:31:15.599Z,3.23
2023-05-17T04:33:43.982Z,3.13
2023-05-17T04:36:13.573Z,2.83
2023-05-17T04:38:41.970Z,3.33
2023-05-17T04:41:10.348Z,3.03
2023-05-17T04:43:38.669Z,2.97
2023-05-17T04:46:07.167Z,2.30
2023-05-17T04:48:35.646Z,2.93
2023-05-17T04:51:05.131Z,2.80
2023-05-17T04:53:34.758Z,2.37
2023-05-17T04:56:04.035Z,2.90
2023-05-17T04:58:32.853Z,2.87
2023-05-17T05:01:01.141Z,2.67
2023-05-17T05:03:29.352Z,2.63
2023-05-17T05:05:57.665Z,2.60
2023-05-17T05:08:25.888Z,2.87
2023-05-17T05:10:55.430Z,3.00
2023-05-17T05:13:23.624Z,3.57
2023-05-17T05:15:51.926Z,2.83
2023-05-17T05:18:20.278Z,2.70
2023-05-17T05:20:49.930Z,3.03
2023-05-17T05:23:18.726Z,2.93
2023-05-17T05:25:47.230Z,3.07
2023-05-17T05:28:16.823Z,3.27
2023-05-17T05:30:45.073Z,2.50
2023-05-17T05:33:13.362Z,2.80
2023-05-17T05:35:41.725Z,2.70
2023-05-17T05:38:09.920Z,2.90
2023-05-17T05:40:38.131Z,2.70
2023-05-17T05:43:06.316Z,3.20
2023-05-17T05:45:35.915Z,2.83
2023-05-17T05:48:05.606Z,2.57
2023-05-17T05:50:33.967Z,3.47
2023-05-17T05:53:14.536Z,2.50
2023-05-17T05:55:46.166Z,2.37
2023-05-17T05:58:14.394Z,3.40
2023-05-17T06:00:43.938Z,2.60
2023-05-17T06:03:12.185Z,3.53
2023-05-17T06:05:40.904Z,2.70
2023-05-17T06:08:09.187Z,2.40
2023-05-17T06:10:37.415Z,2.97
2023-05-17T06:13:05.614Z,2.90
2023-05-17T06:15:33.847Z,2.87
2023-05-17T06:18:03.481Z,3.10
2023-05-17T06:20:31.962Z,2.60
2023-05-17T06:23:00.619Z,3.10
2023-05-17T06:25:28.818Z,2.77
2023-05-17T06:27:57.052Z,2.60
2023-05-17T06:30:27.739Z,2.50
2023-05-17T06:32:56.322Z,2.50
2023-05-17T06:35:26.012Z,2.23
2023-05-17T06:37:54.329Z,2.17
2023-05-17T06:40:22.625Z,2.37
2023-05-17T06:42:50.877Z,2.40
2023-05-17T06:45:19.152Z,2.33
2023-05-17T06:47:47.436Z,2.40
2023-05-17T06:50:15.949Z,2.47
2023-05-17T06:52:45.481Z,2.27
2023-05-17T06:55:13.788Z,2.07
2023-05-17T06:57:41.991Z,2.60
2023-05-17T07:00:11.291Z,2.37
2023-05-17T07:02:39.800Z,2.57
2023-05-17T07:05:08.766Z,2.37
2023-05-17T07:07:37.053Z,2.40
2023-05-17T07:10:07.351Z,3.23
2023-05-17T07:12:35.923Z,3.73
2023-05-17T07:15:06.253Z,3.07
2023-05-17T07:17:34.509Z,2.20
2023-05-17T07:20:02.990Z,1.97
2023-05-17T07:22:31.477Z,2.10
2023-05-17T07:24:59.768Z,1.97
2023-05-17T07:27:29.471Z,2.67
2023-05-17T07:29:57.694Z,2.83
2023-05-17T07:32:26.029Z,2.10
2023-05-17T07:34:54.511Z,2.70
2023-05-17T07:37:22.750Z,2.23
2023-05-17T07:39:51.006Z,2.50
2023-05-17T07:42:19.233Z,3.20
2023-05-17T07:44:49.920Z,2.40
2023-05-17T07:47:18.344Z,2.20
2023-05-17T07:49:46.661Z,2.77
2023-05-17T07:52:17.672Z,1.83
2023-05-17T07:54:45.922Z,2.33
2023-05-17T07:57:14.152Z,2.30
2023-05-17T07:59:42.560Z,2.20
2023-05-17T08:02:12.198Z,2.57
2023-05-17T08:04:41.946Z,2.20
2023-05-17T08:07:10.386Z,2.10
2023-05-17T08:09:40.335Z,1.90
2023-05-17T08:12:08.598Z,2.10
2023-05-17T08:14:36.792Z,1.87
2023-05-17T08:17:05.062Z,1.33
2023-05-17T08:19:34.870Z,1.73
2023-05-17T08:22:05.866Z,1.53
2023-05-17T08:24:34.064Z,1.70
2023-05-17T08:27:02.365Z,1.53
2023-05-17T08:29:30.561Z,1.80
2023-05-17T08:31:58.753Z,1.80
2023-05-17T08:34:27.178Z,1.43
2023-05-17T08:36:56.847Z,1.70
2023-05-17T08:39:25.076Z,1.73
2023-05-17T08:41:53.473Z,1.50
2023-05-17T08:44:23.307Z,1.87
2023-05-17T08:46:53.753Z,1.33
2023-05-17T08:49:23.749Z,1.13
2023-05-17T08:51:52.811Z,1.70
2023-05-17T08:54:22.681Z,1.40
2023-05-17T08:56:52.781Z,1.43
2023-05-17T08:59:21.140Z,1.53
2023-05-17T09:01:50.996Z,1.10
2023-05-17T09:04:19.332Z,1.40
2023-05-17T09:06:47.585Z,1.50
2023-05-17T09:09:16.005Z,1.40
2023-05-17T09:11:45.533Z,1.30
2023-05-17T09:14:13.769Z,1.60
2023-05-17T09:16:43.589Z,1.40
2023-05-17T09:19:16.091Z,2.00
2023-05-17T09:21:47.315Z,1.30
2023-05-17T09:24:15.721Z,1.43
2023-05-17T09:26:44.982Z,1.60
2023-05-17T09:29:15.638Z,1.70
2023-05-17T09:31:44.272Z,1.50
2023-05-17T09:34:13.050Z,2.10
2023-05-17T09:36:44.546Z,1.30
2023-05-17T09:39:14.421Z,1.40
2023-05-17T09:41:43.473Z,1.73
2023-05-17T09:44:12.279Z,1.73
2023-05-17T09:46:43.183Z,1.43
2023-05-17T09:49:11.407Z,1.43
2023-05-17T09:51:42.367Z,1.47
2023-05-17T09:54:11.130Z,1.70
2023-05-17T09:56:39.501Z,1.40
2023-05-17T09:59:12.774Z,1.30
2023-05-17T10:01:42.776Z,1.70
2023-05-17T10:04:11.765Z,1.50
2023-05-17T10:09:15.562Z,1.40
2023-05-17T10:11:45.637Z,1.30
2023-05-17T10:14:22.418Z,1.40
2023-05-17T10:16:52.637Z,1.80
2023-05-17T10:19:21.804Z,1.17
2023-05-17T10:21:51.780Z,1.10
2023-05-17T10:24:21.881Z,1.23
2023-05-17T10:26:51.995Z,1.20
2023-05-17T10:29:21.513Z,1.37
2023-05-17T10:31:51.881Z,1.20
2023-05-17T10:34:22.068Z,1.50
2023-05-17T10:36:51.351Z,1.80
2023-05-17T10:39:19.770Z,1.30
2023-05-17T10:41:49.554Z,1.30
2023-05-17T10:44:18.507Z,1.80
2023-05-17T10:46:53.323Z,1.40
2023-05-17T10:49:25.669Z,1.50
2023-05-17T10:51:53.891Z,1.23
2023-05-17T10:54:22.624Z,1.87
2023-05-17T10:56:51.970Z,1.60
2023-05-17T10:59:21.943Z,2.00
2023-05-17T11:01:52.529Z,1.50
2023-05-17T11:04:26.699Z,1.80
2023-05-17T11:06:57.186Z,1.70
2023-05-17T11:09:25.412Z,1.70
2023-05-17T11:12:05.407Z,1.47
2023-05-17T11:14:49.749Z,1.37
2023-05-17T11:17:18.872Z,1.20
2023-05-17T11:20:10.892Z,1.67
2023-05-17T11:22:42.916Z,1.53
2023-05-17T11:25:13.013Z,1.50
2023-05-17T11:27:45.033Z,1.60
2023-05-17T11:30:20.684Z,1.80
2023-05-17T11:32:50.801Z,1.63
2023-05-17T11:35:19.562Z,1.40
2023-05-17T11:37:49.394Z,1.57
2023-05-17T11:40:25.869Z,1.50
2023-05-17T11:43:08.981Z,1.30
2023-05-17T11:45:41.320Z,1.17
2023-05-17T11:48:09.783Z,1.27
2023-05-17T11:50:38.116Z,1.10
2023-05-17T11:53:07.900Z,1.60
2023-05-17T11:55:36.905Z,1.50
2023-05-17T11:58:05.884Z,1.67
2023-05-17T12:00:34.600Z,0.97
2023-05-17T12:03:16.582Z,1.57
2023-05-17T12:05:45.030Z,1.27
2023-05-17T12:08:15.426Z,1.60
2023-05-17T12:10:46.174Z,1.67
2023-05-17T12:13:14.340Z,1.67
2023-05-17T12:15:43.438Z,1.33
2023-05-17T12:18:11.676Z,1.20
2023-05-17T12:20:40.019Z,1.27
2023-05-17T12:23:08.215Z,1.30
2023-05-17T12:25:37.811Z,1.43
2023-05-17T12:28:15.292Z,1.60
2023-05-17T12:30:43.785Z,1.77
2023-05-17T12:33:12.143Z,1.50
2023-05-17T12:35:40.730Z,1.40
2023-05-17T12:38:09.017Z,1.52
2023-05-17T12:40:38.716Z,1.40
2023-05-17T12:43:07.026Z,1.40
2023-05-17T12:45:35.605Z,1.50
2023-05-17T12:48:03.962Z,1.55
2023-05-17T12:50:32.342Z,1.73
2023-05-17T12:53:00.566Z,1.80
2023-05-17T12:55:28.777Z,1.50
2023-05-17T12:57:58.332Z,1.80
2023-05-17T13:00:26.797Z,1.55
2023-05-17T13:02:55.204Z,1.90
2023-05-17T13:05:23.621Z,1.50
2023-05-17T13:07:51.834Z,1.67
2023-05-17T13:10:23.413Z,2.00
2023-05-17T13:12:59.799Z,1.77
2023-05-17T13:15:29.302Z,1.48
2023-05-17T13:17:57.706Z,2.13
2023-05-17T13:20:26.022Z,1.45
2023-05-17T13:22:54.669Z,1.60
2023-05-17T13:25:22.937Z,1.23
2023-05-17T13:27:51.728Z,1.30
2023-05-17T13:30:21.302Z,1.60
2023-05-17T13:32:49.566Z,1.48
2023-05-17T13:35:17.817Z,1.40
2023-05-17T13:37:46.034Z,1.35
2023-05-17T13:40:14.849Z,1.65
2023-05-17T13:42:43.241Z,2.42
2023-05-17T13:45:13.508Z,1.83
2023-05-17T13:47:43.050Z,1.40
2023-05-17T13:50:12.083Z,1.60
2023-05-17T13:52:40.312Z,1.65
2023-05-17T13:55:09.258Z,1.48
2023-05-17T13:57:37.511Z,1.38
2023-05-17T14:00:06.797Z,1.58
2023-05-17T14:02:35.098Z,1.33
2023-05-17T14:05:05.483Z,1.67
2023-05-17T14:07:33.674Z,1.65
2023-05-17T14:10:02.114Z,1.70
2023-05-17T14:12:30.288Z,1.42
2023-05-17T14:14:58.729Z,1.60
2023-05-17T14:17:26.960Z,1.50
2023-05-17T14:19:55.237Z,1.70
2023-05-17T14:22:24.940Z,1.77
2023-05-17T14:24:53.117Z,1.60
2023-05-17T14:27:21.337Z,1.80
2023-05-17T14:29:49.530Z,1.45
2023-05-17T14:32:17.758Z,1.75
2023-05-17T14:34:46.009Z,1.50
2023-05-17T14:37:14.795Z,1.80
2023-05-17T14:39:55.202Z,2.03
2023-05-17T14:42:32.493Z,1.80
2023-05-17T14:45:00.904Z,2.10
2023-05-17T14:47:29.103Z,1.50
2023-05-17T14:49:57.420Z,1.58
2023-05-17T14:52:25.845Z,1.60
2023-05-17T14:54:55.404Z,1.90
2023-05-17T14:57:23.613Z,1.90
2023-05-17T14:59:52.301Z,1.43
2023-05-17T15:02:20.570Z,2.00
2023-05-17T15:04:48.887Z,1.90
2023-05-17T15:07:17.184Z,1.40
2023-05-17T15:09:45.871Z,1.75
2023-05-17T15:12:15.724Z,1.90
2023-05-17T15:14:45.196Z,1.58
2023-05-17T15:17:13.405Z,1.90
2023-05-17T15:19:42.014Z,2.05
2023-05-17T15:22:10.565Z,1.93
2023-05-17T15:24:39.578Z,2.00
2023-05-17T15:27:08.328Z,1.92
2023-05-17T15:29:39.558Z,1.25
2023-05-17T15:32:07.968Z,1.60
2023-05-17T15:34:36.656Z,2.00
2023-05-17T15:37:04.973Z,1.90
2023-05-17T15:39:33.123Z,1.60
2023-05-17T15:42:01.422Z,2.10
2023-05-17T15:44:29.835Z,1.50
2023-05-17T15:47:01.507Z,2.15
2023-05-17T15:49:31.602Z,1.73
2023-05-17T15:51:59.972Z,1.60
2023-05-17T15:54:28.244Z,1.80
2023-05-17T15:56:56.549Z,1.80
2023-05-17T15:59:24.730Z,2.10
2023-05-17T16:01:52.936Z,2.13
2023-05-17T16:04:22.556Z,1.87
2023-05-17T16:06:50.942Z,2.00
2023-05-17T16:09:19.141Z,2.30
2023-05-17T16:11:47.355Z,2.03
2023-05-17T16:14:15.501Z,1.90
2023-05-17T16:16:45.077Z,2.00
2023-05-17T16:19:13.658Z,2.17
2023-05-17T16:21:43.415Z,2.00
2023-05-17T16:24:11.612Z,2.00
2023-05-17T16:26:39.793Z,1.90
2023-05-17T16:29:08.006Z,2.63
2023-05-17T16:31:36.626Z,1.93
2023-05-17T16:34:04.871Z,1.83
2023-05-17T16:36:33.831Z,2.10
2023-05-17T16:39:04.772Z,1.80
2023-05-17T16:41:33.618Z,2.53
2023-05-17T16:44:01.914Z,2.37
2023-05-17T16:46:30.062Z,1.93
2023-05-17T16:48:58.256Z,1.73
2023-05-17T16:51:26.411Z,2.00
2023-05-17T16:53:54.578Z,1.83
2023-05-17T16:56:24.103Z,1.93
2023-05-17T16:58:52.604Z,2.20
2023-05-17T17:01:21.160Z,2.03
2023-05-17T17:03:49.399Z,2.23
2023-05-17T17:06:17.633Z,1.60
2023-05-17T17:08:46.495Z,2.27
2023-05-17T17:11:14.684Z,2.13
2023-05-17T17:13:44.282Z,1.80
2023-05-17T17:16:12.429Z,2.00
2023-05-17T17:18:40.698Z,2.27
2023-05-17T17:21:08.908Z,1.53
2023-05-17T17:23:37.107Z,2.27
2023-05-17T17:26:05.318Z,2.20
2023-05-17T17:28:33.553Z,2.70
2023-05-17T17:31:03.133Z,1.90
2023-05-17T17:33:31.496Z,2.23
2023-05-17T17:35:59.878Z,2.03
2023-05-17T17:38:28.026Z,2.10
2023-05-17T17:40:56.292Z,2.60
2023-05-17T17:43:24.570Z,1.80
2023-05-17T17:45:52.726Z,2.07
2023-05-17T17:48:22.277Z,2.00
2023-05-17T17:50:50.476Z,2.17
2023-05-17T17:53:18.884Z,1.77
2023-05-17T17:55:47.096Z,2.33
2023-05-17T17:58:15.269Z,2.10
2023-05-17T18:00:43.448Z,2.20
2023-05-17T18:03:12.762Z,2.10
2023-05-17T18:05:42.452Z,1.90
2023-05-17T18:08:10.960Z,2.00
2023-05-17T18:10:39.170Z,1.93
2023-05-17T18:13:07.452Z,2.10
2023-05-17T18:15:35.606Z,1.40
2023-05-17T18:18:03.856Z,1.70
2023-05-17T18:20:32.275Z,2.20
2023-05-17T18:23:01.938Z,2.17
2023-05-17T18:25:30.163Z,2.00
2023-05-17T18:27:58.356Z,2.07
2023-05-17T18:30:26.618Z,2.10
2023-05-17T18:32:54.896Z,1.87
2023-05-17T18:35:23.401Z,2.20
2023-05-17T18:37:51.737Z,2.13
2023-05-17T18:40:21.584Z,2.00
2023-05-17T18:42:49.814Z,1.90
2023-05-17T18:45:17.993Z,2.03
2023-05-17T18:47:46.436Z,1.60
2023-05-17T18:50:14.660Z,1.60
2023-05-17T18:52:42.833Z,2.13
2023-05-17T18:55:11.247Z,2.10
2023-05-17T18:57:42.386Z,2.03
2023-05-17T19:00:11.155Z,2.00
2023-05-17T19:02:39.375Z,2.00
2023-05-17T19:05:08.017Z,2.60
2023-05-17T19:07:36.308Z,2.10
2023-05-17T19:10:04.939Z,2.17
2023-05-17T19:12:35.212Z,1.70
2023-05-17T19:15:04.885Z,2.00
2023-05-17T19:17:33.192Z,1.90
2023-05-17T19:20:01.508Z,1.83
2023-05-17T19:22:29.720Z,2.17
2023-05-17T19:24:57.876Z,2.33
2023-05-17T19:27:26.857Z,2.30
2023-05-17T19:29:55.179Z,7.30
2023-05-17T19:32:24.934Z,5.80
2023-05-17T19:34:53.103Z,3.20
2023-05-17T19:37:21.543Z,2.60
2023-05-17T19:39:49.703Z,2.67
2023-05-17T19:42:18.214Z,2.33
2023-05-17T19:44:46.438Z,2.20
2023-05-17T19:47:14.602Z,2.50
2023-05-17T19:49:44.209Z,1.90
2023-05-17T19:52:12.421Z,2.30
2023-05-17T19:54:40.663Z,2.87
2023-05-17T19:57:08.883Z,2.23
2023-05-17T19:59:37.317Z,2.07
2023-05-17T20:02:05.664Z,1.90
2023-05-17T20:04:33.944Z,2.27
2023-05-17T20:07:03.416Z,2.33
2023-05-17T20:09:32.156Z,2.00
2023-05-17T20:12:00.485Z,2.60
2023-05-17T20:14:28.964Z,2.17
2023-05-17T20:16:57.395Z,1.77
2023-05-17T20:19:25.774Z,1.70
2023-05-17T20:21:54.114Z,2.50
2023-05-17T20:24:25.446Z,1.90
2023-05-17T20:26:53.604Z,2.10
2023-05-17T20:29:21.791Z,1.87
2023-05-17T20:31:50.266Z,2.30
2023-05-17T20:34:18.474Z,2.07
2023-05-17T20:36:46.713Z,1.90
2023-05-17T20:39:15.368Z,2.20
2023-05-17T20:41:44.956Z,2.23
2023-05-17T20:44:19.465Z,1.90
2023-05-17T20:46:47.698Z,2.27
2023-05-17T20:49:16.944Z,2.00
2023-05-17T20:51:45.551Z,2.03
2023-05-17T20:54:13.777Z,2.57
2023-05-17T20:56:42.013Z,2.00
2023-05-17T20:59:11.714Z,1.83
2023-05-17T21:01:41.342Z,2.10
2023-05-17T21:04:11.142Z,2.23
2023-05-17T21:06:39.384Z,2.70
2023-05-17T21:09:07.609Z,3.03
2023-05-17T21:11:35.825Z,2.80
2023-05-17T21:14:04.101Z,2.67
2023-05-17T21:16:35.407Z,2.10
2023-05-17T21:19:03.843Z,2.07
2023-05-17T21:21:32.040Z,2.07
2023-05-17T21:24:00.312Z,2.13
2023-05-17T21:29:01.696Z,1.97
2023-05-17T21:31:31.717Z,1.97
2023-05-17T21:34:01.419Z,2.40
2023-05-17T21:36:29.691Z,2.60
2023-05-17T21:38:57.867Z,1.63
2023-05-17T21:41:26.070Z,1.93
2023-05-17T21:43:54.341Z,1.90
2023-05-17T21:46:22.597Z,2.00
2023-05-17T21:48:50.974Z,1.97
2023-05-17T21:51:21.758Z,2.00
2023-05-17T21:53:50.441Z,2.20
2023-05-17T21:56:18.691Z,2.07
2023-05-17T21:58:46.892Z,2.10
2023-05-17T22:01:15.241Z,2.27
2023-05-17T22:03:43.665Z,2.43
2023-05-17T22:06:12.050Z,2.30
2023-05-17T22:08:42.281Z,2.50
2023-05-17T22:11:10.920Z,2.50
2023-05-17T22:13:39.118Z,2.47
2023-05-17T22:16:07.831Z,2.27
2023-05-17T22:18:36.224Z,2.20
2023-05-17T22:21:04.531Z,2.20
2023-05-17T22:23:32.760Z,2.20
2023-05-17T22:26:02.284Z,2.30
2023-05-17T22:28:30.577Z,2.20
2023-05-17T22:30:58.817Z,2.30
2023-05-17T22:33:29.627Z,2.00
2023-05-17T22:35:58.725Z,1.70
2023-05-17T22:38:27.030Z,1.47
2023-05-17T22:40:55.239Z,1.90
2023-05-17T22:43:25.901Z,2.00
2023-05-17T22:45:54.158Z,2.00
2023-05-17T22:48:22.362Z,1.80
2023-05-17T22:50:50.669Z,2.10
2023-05-17T22:53:19.174Z,2.03
2023-05-17T22:55:49.019Z,2.40
2023-05-17T22:58:17.333Z,1.93
2023-05-17T23:00:47.103Z,1.80
2023-05-17T23:03:15.530Z,2.00
2023-05-17T23:05:45.491Z,1.70
2023-05-17T23:08:15.438Z,2.30
2023-05-17T23:10:45.237Z,2.17
2023-05-17T23:13:13.920Z,2.27
2023-05-17T23:15:46.694Z,1.80
2023-05-17T23:18:17.305Z,2.03
2023-05-17T23:20:46.220Z,1.90
2023-05-17T23:23:15.356Z,2.20
2023-05-17T23:25:44.680Z,2.37
2023-05-17T23:28:14.450Z,2.20
2023-05-17T23:30:44.360Z,2.70
2023-05-17T23:33:12.637Z,1.90
2023-05-17T23:35:42.322Z,2.63
2023-05-17T23:38:10.582Z,1.93
2023-05-17T23:40:40.844Z,2.70
2023-05-17T23:43:10.187Z,2.27
2023-05-17T23:45:38.419Z,1.87
2023-05-17T23:48:09.714Z,1.93
2023-05-17T23:50:38.320Z,2.00
2023-05-17T23:53:09.483Z,2.37
2023-05-17T23:55:38.380Z,2.07
2023-05-17T23:58:06.625Z,2.50
